Time;durP1;ratioP1;P1;durP2;ratioP2;P2;SDS_P1;SDS_P2;PMS_P1;PMS_P2;Temp;Humidity;BMP_temperature;BMP_pressure;BME280_temperature;BME280_humidity;BME280_pressure;Samples;Min_cycle;Max_cycle;Signal;HPM_P1;HPM_P2
2021/09/21 00:01:46;;;;;;;4.45;2.27;;;;;;;22.53;55.04;100834.67;1675425;82;22139;-46
2021/09/21 00:04:12;;;;;;;4.42;2.27;;;;;;;22.52;55.06;100832.25;1718592;82;21005;-45
2021/09/21 00:06:38;;;;;;;4.78;2.60;;;;;;;22.52;55.06;100824.75;1753194;80;21005;-47
2021/09/21 00:09:04;;;;;;;5.35;2.85;;;;;;;22.51;55.06;100820.34;1751765;80;20906;-48
2021/09/21 00:11:30;;;;;;;5.37;2.67;;;;;;;22.50;55.08;100822.87;1741102;81;21037;-46
2021/09/21 00:13:57;;;;;;;3.80;2.25;;;;;;;22.50;55.09;100827.59;1749785;81;21956;-47
2021/09/21 00:16:23;;;;;;;4.72;2.37;;;;;;;22.49;55.10;100821.83;1738994;82;21080;-52
2021/09/21 00:18:49;;;;;;;3.87;2.45;;;;;;;22.48;55.14;100829.90;1727126;82;21057;-45
2021/09/21 00:21:16;;;;;;;4.08;2.72;;;;;;;22.48;55.14;100839.61;1735736;82;21041;-44
2021/09/21 00:23:42;;;;;;;4.55;2.80;;;;;;;22.46;55.14;100846.85;1735575;82;20990;-47
2021/09/21 00:26:08;;;;;;;5.30;2.42;;;;;;;22.47;55.16;100858.77;1721742;82;21554;-46
2021/09/21 00:28:34;;;;;;;4.05;2.75;;;;;;;22.46;55.18;100856.55;1721950;81;20873;-49
2021/09/21 00:31:06;;;;;;;3.87;2.37;;;;;;;22.45;55.19;100855.52;1728706;81;21688;-45
2021/09/21 00:33:34;;;;;;;4.67;2.65;;;;;;;22.44;55.19;100859.42;1740425;81;21476;-48
2021/09/21 00:35:56;;;;;;;6.00;3.10;;;;;;;22.43;55.21;100856.41;1730513;82;21514;-45
2021/09/21 00:38:22;;;;;;;4.60;2.58;;;;;;;22.42;55.25;100863.91;1697703;83;22040;-47
2021/09/21 00:40:49;;;;;;;5.95;2.95;;;;;;;22.42;55.24;100871.40;1724528;81;21049;-47
2021/09/21 00:43:22;;;;;;;4.92;2.77;;;;;;;22.40;55.28;100866.77;1740522;81;21073;-46
2021/09/21 00:45:52;;;;;;;4.28;2.95;;;;;;;22.39;55.30;100865.95;1724274;82;21512;-46
2021/09/21 00:48:22;;;;;;;4.77;2.97;;;;;;;22.38;55.31;100874.59;1732085;82;21018;-46
2021/09/21 00:50:49;;;;;;;4.67;2.70;;;;;;;22.38;55.33;100880.13;1729811;82;21151;-49
2021/09/21 00:53:15;;;;;;;7.40;3.30;;;;;;;22.36;55.36;100884.64;1721419;82;21056;-54
2021/09/21 00:55:42;;;;;;;6.55;3.58;;;;;;;22.37;55.38;100896.52;1731121;81;21316;-48
2021/09/21 00:58:08;;;;;;;5.05;3.25;;;;;;;22.35;55.40;100895.47;1690449;83;21531;-46
2021/09/21 01:00:34;;;;;;;5.75;3.10;;;;;;;22.33;55.42;100895.79;1709295;82;21017;-47
2021/09/21 01:03:00;;;;;;;4.55;2.75;;;;;;;22.33;55.45;100898.56;1732641;81;21318;-47
2021/09/21 01:05:26;;;;;;;5.12;3.25;;;;;;;22.32;55.46;100897.49;1730980;82;21486;-48
2021/09/21 01:07:52;;;;;;;4.53;2.92;;;;;;;22.30;55.49;100913.08;1726138;81;20930;-47
2021/09/21 01:10:23;;;;;;;5.72;3.08;;;;;;;22.29;55.52;100908.67;1731729;81;21150;-47
2021/09/21 01:12:51;;;;;;;5.97;2.85;;;;;;;22.32;55.51;100923.26;1722057;81;21123;-45
2021/09/21 01:15:18;;;;;;;5.78;3.08;;;;;;;22.35;55.52;100917.65;1721719;80;21404;-47
2021/09/21 01:17:44;;;;;;;5.70;2.80;;;;;;;22.39;55.51;100917.23;1726562;81;21474;-48
2021/09/21 01:20:11;;;;;;;4.10;2.75;;;;;;;22.43;55.48;100919.59;1713427;81;21116;-46
2021/09/21 01:22:38;;;;;;;5.30;2.87;;;;;;;22.47;55.46;100925.30;1746895;80;21454;-46
2021/09/21 01:25:06;;;;;;;4.35;3.05;;;;;;;22.51;55.43;100928.48;1768003;80;21101;-46
2021/09/21 01:27:32;;;;;;;5.70;3.00;;;;;;;22.56;55.40;100923.34;1761445;80;21088;-46
2021/09/21 01:29:58;;;;;;;4.75;2.85;;;;;;;22.60;55.37;100923.74;1770520;80;20891;-45
2021/09/21 01:32:24;;;;;;;4.00;2.45;;;;;;;22.65;55.36;100929.13;1767422;80;20930;-45
2021/09/21 01:34:50;;;;;;;3.98;2.70;;;;;;;22.71;55.33;100929.78;1722501;82;20997;-49
2021/09/21 01:37:16;;;;;;;4.60;2.85;;;;;;;22.73;55.32;100927.51;1717377;82;21073;-46
2021/09/21 01:39:43;;;;;;;3.08;2.35;;;;;;;22.78;55.29;100935.66;1719416;82;22025;-49
2021/09/21 01:42:09;;;;;;;5.40;3.08;;;;;;;22.80;55.28;100947.80;1725608;82;21080;-46
2021/09/21 01:44:36;;;;;;;4.62;2.58;;;;;;;22.83;55.25;100952.70;1716096;81;21534;-46
2021/09/21 01:47:04;;;;;;;4.53;2.58;;;;;;;22.85;55.23;100951.79;1738607;81;21006;-46
2021/09/21 01:49:40;;;;;;;3.85;2.55;;;;;;;22.87;55.21;100955.06;1763219;80;21129;-48
2021/09/21 01:52:10;;;;;;;3.77;2.47;;;;;;;22.89;55.19;100961.90;1772726;80;21080;-49
2021/09/21 01:59:38;;;;;;;3.33;2.35;;;;;;;22.92;55.16;100961.23;1767434;79;21038;-49
2021/09/21 02:02:04;;;;;;;5.20;2.52;;;;;;;22.94;55.14;100963.69;1755736;80;22110;-48
2021/09/21 02:04:30;;;;;;;3.22;2.37;;;;;;;22.93;55.13;100962.87;1710827;82;21199;-50
2021/09/21 02:06:56;;;;;;;4.30;2.70;;;;;;;22.93;55.14;100962.87;1704820;83;21199;-48
2021/09/21 02:09:22;;;;;;;3.00;2.27;;;;;;;22.94;55.14;100969.23;1704083;82;21025;-47
2021/09/21 02:11:48;;;;;;;4.28;2.20;;;;;;;22.94;55.16;100973.41;1706380;82;21104;-47
2021/09/21 02:14:15;;;;;;;4.35;2.40;;;;;;;22.93;55.16;100973.97;1708474;83;21070;-46
2021/09/21 02:16:42;;;;;;;2.95;2.17;;;;;;;22.94;55.16;100974.79;1704546;83;21957;-47
2021/09/21 02:19:09;;;;;;;4.03;2.45;;;;;;;22.94;55.15;100974.22;1712580;82;21452;-48
2021/09/21 02:21:35;;;;;;;3.30;2.20;;;;;;;22.94;55.14;100972.02;1709155;82;20997;-49
2021/09/21 02:24:01;;;;;;;3.40;2.25;;;;;;;22.93;55.16;100980.09;1703254;82;21581;-48
2021/09/21 02:26:28;;;;;;;3.00;2.10;;;;;;;22.91;55.15;100979.05;1707881;83;21001;-47
2021/09/21 02:28:54;;;;;;;4.42;2.10;;;;;;;22.90;55.19;100982.96;1703940;82;21152;-44
2021/09/21 02:31:20;;;;;;;4.08;1.90;;;;;;;22.90;55.19;100996.02;1707605;82;21437;-44
2021/09/21 02:33:47;;;;;;;3.15;2.10;;;;;;;22.90;55.16;101002.38;1647115;85;21158;-45
2021/09/21 02:36:13;;;;;;;3.47;1.92;;;;;;;22.89;55.19;100989.64;1711151;83;21694;-49
2021/09/21 02:38:39;;;;;;;3.65;1.95;;;;;;;22.88;55.16;100988.58;1707085;82;21073;-46
2021/09/21 02:41:06;;;;;;;2.98;2.00;;;;;;;22.87;55.18;100986.97;1706986;82;21444;-45
2021/09/21 02:43:32;;;;;;;3.05;1.90;;;;;;;22.87;55.17;100995.30;1709191;82;20986;-49
2021/09/21 02:46:01;;;;;;;3.42;2.10;;;;;;;22.85;55.18;100992.02;1711204;82;20973;-45
2021/09/21 02:48:29;;;;;;;3.08;1.98;;;;;;;22.85;55.19;100997.00;1706252;82;21030;-45
2021/09/21 02:50:55;;;;;;;3.00;1.82;;;;;;;22.84;55.19;100997.31;1709605;82;21026;-45
2021/09/21 02:53:22;;;;;;;3.55;2.45;;;;;;;22.83;55.20;100997.09;1712302;82;21673;-49
2021/09/21 02:55:48;;;;;;;3.80;2.00;;;;;;;22.83;55.20;101001.25;1706913;83;21014;-50
2021/09/21 02:58:14;;;;;;;2.30;1.62;;;;;;;22.82;55.20;101005.98;1708554;82;21062;-47
2021/09/21 03:00:40;;;;;;;2.83;2.00;;;;;;;22.80;55.23;101004.09;1705000;83;21532;-46
2021/09/21 03:03:07;;;;;;;3.22;2.15;;;;;;;22.79;55.23;101002.45;1700465;82;21054;-49
2021/09/21 03:05:40;;;;;;;2.55;1.80;;;;;;;22.78;55.24;101002.80;1690149;83;21129;-48
2021/09/21 03:08:06;;;;;;;2.30;1.47;;;;;;;22.77;55.26;101010.30;1748713;80;21004;-45
2021/09/21 03:10:44;;;;;;;2.50;1.80;;;;;;;22.75;55.25;101017.55;1745599;80;21019;-47
2021/09/21 03:13:29;;;;;;;;;;;;;;;22.75;55.29;101022.28;1742057;80;21015;-48
2021/09/21 03:18:31;;;;;;;2.60;1.77;;;;;;;22.70;55.28;101035.74;1700879;82;21412;-46
2021/09/21 03:20:57;;;;;;;2.72;1.60;;;;;;;22.67;55.31;101039.71;1710552;83;21037;-47
2021/09/21 03:23:24;;;;;;;2.35;1.90;;;;;;;22.66;55.34;101046.42;1708856;82;21277;-47
2021/09/21 03:25:50;;;;;;;2.70;2.05;;;;;;;22.63;55.33;101050.64;1716331;82;21038;-49
2021/09/21 03:28:16;;;;;;;2.50;1.77;;;;;;;22.62;55.34;101050.39;1752930;80;21086;-46
2021/09/21 03:30:42;;;;;;;2.60;1.87;;;;;;;22.61;55.37;101057.67;1753630;80;21280;-48
2021/09/21 03:33:08;;;;;;;2.40;1.65;;;;;;;22.59;55.38;101057.16;1740881;81;20860;-45
2021/09/21 03:35:37;;;;;;;3.00;2.02;;;;;;;22.58;55.39;101048.59;1752165;80;21543;-47
2021/09/21 03:38:03;;;;;;;2.42;1.60;;;;;;;22.57;55.43;101054.73;1739274;80;21614;-48
2021/09/21 03:40:29;;;;;;;2.75;1.85;;;;;;;22.55;55.44;101058.95;1742107;80;21046;-46
2021/09/21 03:42:55;;;;;;;2.10;1.57;;;;;;;22.54;55.46;101058.70;1704576;82;21498;-49
2021/09/21 03:45:21;;;;;;;2.75;1.90;;;;;;;22.53;55.47;101064.03;1709604;82;20908;-47
2021/09/21 03:47:48;;;;;;;2.70;1.80;;;;;;;22.52;55.49;101067.94;1711961;82;21481;-49
2021/09/21 03:50:14;;;;;;;3.15;1.80;;;;;;;22.50;55.50;101067.43;1707477;82;21042;-46
2021/09/21 03:52:40;;;;;;;4.00;2.45;;;;;;;22.49;55.55;101078.30;1708388;82;21029;-46
2021/09/21 03:55:07;;;;;;;3.75;1.80;;;;;;;22.47;55.57;101083.33;1699757;82;21337;-46
2021/09/21 03:57:33;;;;;;;4.62;2.45;;;;;;;22.46;55.59;101083.08;1703008;83;21018;-51
2021/09/21 03:59:59;;;;;;;4.17;1.80;;;;;;;22.44;55.61;101088.15;1704119;82;21038;-46
2021/09/21 04:02:25;;;;;;;5.17;1.98;;;;;;;22.43;55.60;101094.26;1688922;83;21662;-49
2021/09/21 04:04:51;;;;;;;5.42;2.33;;;;;;;22.42;55.65;101089.03;1708870;82;21060;-47
2021/09/21 04:07:18;;;;;;;2.98;1.98;;;;;;;22.41;55.65;101095.70;1696366;82;21245;-45
2021/09/21 04:09:45;;;;;;;3.25;1.75;;;;;;;22.39;55.66;101099.38;1697821;83;20993;-46
2021/09/21 04:12:11;;;;;;;6.75;2.62;;;;;;;22.39;55.68;101102.16;1690400;82;21099;-49
2021/09/21 04:14:37;;;;;;;14.28;3.35;;;;;;;22.38;55.72;101106.88;1694963;84;21088;-49
2021/09/21 04:17:03;;;;;;;37.98;8.20;;;;;;;22.38;55.74;101100.52;1702938;82;21010;-49
2021/09/21 04:19:29;;;;;;;79.10;22.65;;;;;;;22.40;55.82;101103.23;1671372;83;21260;-45
2021/09/21 04:21:55;;;;;;;17.55;5.55;;;;;;;22.41;55.89;101104.84;1697764;82;21482;-47
2021/09/21 04:24:21;;;;;;;31.25;10.43;;;;;;;22.44;55.94;101103.39;1703290;82;21119;-47
2021/09/21 04:26:48;;;;;;;91.67;26.35;;;;;;;22.44;56.00;101098.67;1703157;83;20953;-46
2021/09/21 04:29:14;;;;;;;53.65;16.85;;;;;;;22.46;56.08;101113.02;1703694;83;21102;-47
2021/09/21 04:31:42;;;;;;;72.32;24.23;;;;;;;22.48;56.13;101113.52;1717024;82;21335;-45
2021/09/21 04:34:08;;;;;;;108.25;31.55;;;;;;;22.50;56.18;101116.77;1709997;80;21072;-46
2021/09/21 04:36:34;;;;;;;26.82;7.62;;;;;;;22.52;56.22;101122.00;1750575;81;20932;-44
2021/09/21 04:39:00;;;;;;;5.08;1.95;;;;;;;22.52;56.25;101118.66;1746323;81;21186;-45
2021/09/21 04:41:27;;;;;;;2.67;1.50;;;;;;;22.54;56.31;101121.09;1757172;80;21534;-47
2021/09/21 04:43:53;;;;;;;3.02;1.60;;;;;;;22.55;56.34;101128.28;1753251;80;22282;-46
2021/09/21 04:46:19;;;;;;;24.55;8.00;;;;;;;22.55;56.33;101128.28;1752661;80;20903;-51
2021/09/21 04:48:46;;;;;;;50.08;12.00;;;;;;;22.55;56.37;101130.48;1752946;80;21055;-47
2021/09/21 04:51:12;;;;;;;55.50;16.23;;;;;;;22.59;56.45;101131.47;1751523;80;21072;-48
2021/09/21 04:53:38;;;;;;;81.70;21.93;;;;;;;22.65;56.54;101138.52;1747003;80;21759;-49
2021/09/21 04:56:04;;;;;;;25.17;7.10;;;;;;;22.71;56.67;101147.51;1754997;80;21244;-45
2021/09/21 04:58:30;;;;;;;9.00;2.47;;;;;;;22.75;56.81;101145.16;1734658;80;21025;-48
2021/09/21 05:00:57;;;;;;;7.87;2.83;;;;;;;22.82;56.89;101143.87;1743848;80;21023;-48
2021/09/21 05:03:23;;;;;;;14.53;3.90;;;;;;;22.86;56.90;101142.08;1736849;80;21640;-49
2021/09/21 05:05:50;;;;;;;14.70;4.40;;;;;;;22.91;56.85;101150.25;1701857;82;21032;-46
2021/09/21 05:08:16;;;;;;;17.48;5.05;;;;;;;22.96;56.73;101158.39;1705843;82;21156;-49
2021/09/21 05:10:42;;;;;;;14.78;4.05;;;;;;;22.97;56.64;101158.08;1707358;82;21041;-49
2021/09/21 05:13:08;;;;;;;13.00;4.90;;;;;;;23.01;56.54;101163.78;1716133;82;21094;-48
2021/09/21 05:15:34;;;;;;;12.47;3.83;;;;;;;23.02;56.43;101165.42;1710752;82;20970;-46
2021/09/21 05:18:00;;;;;;;15.08;3.58;;;;;;;23.00;56.36;101165.74;1724560;82;20962;-48
2021/09/21 05:20:27;;;;;;;8.50;3.60;;;;;;;23.00;56.29;101165.74;1709837;82;21265;-50
2021/09/21 05:22:54;;;;;;;13.78;4.17;;;;;;;22.99;56.23;101168.30;1692917;83;20970;-48
2021/09/21 05:25:21;;;;;;;11.90;3.70;;;;;;;22.98;56.18;101167.22;1694890;83;21076;-49
2021/09/21 05:27:47;;;;;;;7.70;3.00;;;;;;;22.97;56.13;101173.91;1710858;82;21185;-47
2021/09/21 05:30:14;;;;;;;9.88;3.60;;;;;;;22.95;56.11;101174.81;1695710;83;21556;-50
2021/09/21 05:32:40;;;;;;;11.50;3.15;;;;;;;22.94;56.08;101184.27;1677803;84;21123;-47
2021/09/21 05:35:08;;;;;;;8.58;2.62;;;;;;;22.91;56.05;101189.91;1705706;82;21047;-49
2021/09/21 05:37:34;;;;;;;9.10;3.22;;;;;;;22.90;56.05;101193.00;1719588;82;21079;-48
2021/09/21 05:40:00;;;;;;;9.40;3.15;;;;;;;22.88;56.01;101188.33;1698563;82;21062;-49
2021/09/21 05:42:26;;;;;;;10.15;3.02;;;;;;;22.87;56.01;101190.88;1712669;82;21506;-47
2021/09/21 05:44:52;;;;;;;7.50;3.10;;;;;;;22.85;56.00;101199.52;1718374;82;22066;-49
2021/09/21 05:47:19;;;;;;;7.25;2.83;;;;;;;22.83;56.00;101203.17;1731552;82;21006;-47
2021/09/21 05:49:45;;;;;;;7.60;2.67;;;;;;;22.82;55.98;101210.45;1715361;82;21056;-47
2021/09/21 05:52:11;;;;;;;7.05;2.47;;;;;;;22.81;55.98;101210.19;1723876;82;20960;-46
2021/09/21 05:54:37;;;;;;;3.90;2.35;;;;;;;22.80;55.98;101213.53;1713919;82;20990;-48
2021/09/21 05:57:03;;;;;;;6.35;2.47;;;;;;;22.78;55.97;101219.17;1694479;82;21175;-48
2021/09/21 05:59:29;;;;;;;7.65;2.80;;;;;;;22.77;55.98;101222.51;1712047;82;21110;-46
2021/09/21 06:01:55;;;;;;;9.45;2.62;;;;;;;22.76;55.97;101227.23;1680012;84;20900;-47
2021/09/21 06:04:21;;;;;;;6.42;2.47;;;;;;;22.75;55.95;101226.98;1698748;83;20957;-48
2021/09/21 06:06:47;;;;;;;5.37;2.52;;;;;;;22.73;55.95;101232.05;1708341;81;21127;-46
2021/09/21 06:09:14;;;;;;;4.90;2.42;;;;;;;22.73;55.95;101238.98;1718445;82;21124;-50
2021/09/21 06:11:40;;;;;;;5.67;2.00;;;;;;;22.72;55.94;101241.50;1704810;82;21721;-46
2021/09/21 06:14:06;;;;;;;5.78;2.47;;;;;;;22.72;55.94;101244.84;1720254;82;21160;-52
2021/09/21 06:16:32;;;;;;;5.42;2.47;;;;;;;22.71;55.91;101251.52;1713733;82;21544;-47
2021/09/21 06:18:58;;;;;;;4.87;1.95;;;;;;;22.71;55.90;101248.75;1701615;82;21044;-48
2021/09/21 06:21:25;;;;;;;8.23;2.47;;;;;;;22.71;55.89;101250.95;1680915;83;21153;-48
2021/09/21 06:23:51;;;;;;;4.90;1.85;;;;;;;22.70;55.90;101245.75;1711479;82;21021;-48
2021/09/21 06:26:18;;;;;;;7.58;2.20;;;;;;;22.68;55.87;101246.03;1712900;82;21033;-45
2021/09/21 06:28:44;;;;;;;6.67;2.00;;;;;;;22.68;55.85;101252.97;1699659;82;21551;-47
2021/09/21 06:31:10;;;;;;;3.95;1.90;;;;;;;22.70;55.84;101253.48;1710229;83;21029;-48
2021/09/21 06:33:36;;;;;;;4.90;2.02;;;;;;;22.67;55.85;101249.94;1694715;82;21235;-46
2021/09/21 06:36:03;;;;;;;6.05;2.47;;;;;;;22.67;55.83;101256.05;1720832;82;21594;-50
2021/09/21 06:38:29;;;;;;;4.58;2.00;;;;;;;22.65;55.81;101252.23;1731406;81;21037;-50
2021/09/21 06:40:55;;;;;;;6.67;1.85;;;;;;;22.66;55.83;101256.61;1730253;81;21155;-47
2021/09/21 06:43:21;;;;;;;4.45;1.75;;;;;;;22.65;55.81;101263.32;1715193;81;21595;-50
2021/09/21 06:45:47;;;;;;;5.08;1.95;;;;;;;22.65;55.81;101262.50;1721476;81;21728;-49
2021/09/21 06:48:13;;;;;;;3.02;1.55;;;;;;;22.65;55.80;101266.09;1727481;81;21079;-47
2021/09/21 06:50:40;;;;;;;3.95;2.22;;;;;;;22.64;55.79;101271.38;1678629;84;21652;-46
2021/09/21 06:53:06;;;;;;;6.10;1.98;;;;;;;22.64;55.78;101279.70;1713585;82;21215;-45
2021/09/21 06:55:32;;;;;;;3.67;1.65;;;;;;;22.64;55.78;101285.25;1708788;82;21014;-48
2021/09/21 06:57:58;;;;;;;3.92;1.70;;;;;;;22.66;55.75;101294.66;1707560;82;21543;-47
2021/09/21 07:00:24;;;;;;;3.72;1.55;;;;;;;22.64;55.75;101286.64;1711123;82;21487;-50
2021/09/21 07:02:54;;;;;;;4.22;1.67;;;;;;;22.65;55.75;101290.23;1710548;81;21104;-50
2021/09/21 07:05:21;;;;;;;3.52;1.72;;;;;;;22.65;55.74;101299.38;1694046;82;21504;-45
2021/09/21 07:07:49;;;;;;;2.85;1.55;;;;;;;22.64;55.72;101288.02;1671095;85;21561;-51
2021/09/21 07:10:17;;;;;;;3.95;1.98;;;;;;;22.63;55.73;101291.93;1671008;84;21093;-45
2021/09/21 07:12:43;;;;;;;5.20;1.82;;;;;;;22.64;55.74;101289.98;1672544;85;21375;-45
2021/09/21 07:15:11;;;;;;;2.65;1.52;;;;;;;22.62;55.75;101294.45;1677139;84;21101;-47
2021/09/21 07:17:38;;;;;;;3.27;1.57;;;;;;;22.62;55.76;101299.17;1728373;81;21556;-48
2021/09/21 07:20:06;;;;;;;4.17;1.57;;;;;;;22.63;55.77;101304.97;1736286;81;20917;-47
2021/09/21 07:22:32;;;;;;;3.20;1.60;;;;;;;22.62;55.81;101309.70;1737840;81;21146;-45
2021/09/21 07:24:59;;;;;;;6.70;2.10;;;;;;;22.62;55.82;101306.92;1742938;81;20969;-48
2021/09/21 07:27:26;;;;;;;5.08;2.08;;;;;;;22.62;55.86;101311.09;1679013;84;21104;-45
2021/09/21 07:29:52;;;;;;;3.20;1.70;;;;;;;22.63;55.88;101309.13;1679480;84;21038;-47
2021/09/21 07:32:18;;;;;;;3.80;1.50;;;;;;;22.63;55.90;101321.62;1688765;83;20939;-48
2021/09/21 07:34:44;;;;;;;4.58;1.57;;;;;;;22.63;55.93;101319.66;1668204;84;21001;-47
2021/09/21 07:37:13;;;;;;;5.37;1.80;;;;;;;22.63;55.95;101325.21;1686968;83;21595;-46
2021/09/21 07:39:38;;;;;;;2.65;1.57;;;;;;;22.64;55.97;101332.41;1699751;82;21076;-46
2021/09/21 07:42:04;;;;;;;2.58;1.50;;;;;;;22.65;56.01;101330.45;1751047;80;21052;-48
2021/09/21 07:44:31;;;;;;;4.03;1.90;;;;;;;22.64;56.02;101335.17;1737016;81;21069;-47
2021/09/21 07:46:58;;;;;;;4.45;1.70;;;;;;;22.65;56.01;101335.44;1718529;82;21294;-49
2021/09/21 07:49:25;;;;;;;2.35;1.35;;;;;;;22.66;56.01;101332.09;1707268;82;21115;-49
2021/09/21 07:51:51;;;;;;;3.75;1.40;;;;;;;22.66;56.04;101335.66;1732018;81;21035;-48
2021/09/21 07:54:18;;;;;;;4.35;2.05;;;;;;;22.67;56.05;101330.37;1729959;82;21022;-49
2021/09/21 07:56:44;;;;;;;2.47;1.30;;;;;;;22.67;56.05;101335.91;1675706;83;21070;-48
2021/09/21 07:59:10;;;;;;;2.60;1.62;;;;;;;22.68;56.05;101333.40;1681158;84;21321;-50
2021/09/21 08:01:36;;;;;;;3.02;1.42;;;;;;;22.71;56.07;101338.89;1683967;83;21927;-46
2021/09/21 08:04:04;;;;;;;3.67;1.52;;;;;;;22.71;56.07;101345.83;1682598;83;21058;-47
2021/09/21 08:06:30;;;;;;;2.67;1.42;;;;;;;22.71;56.07;101344.44;1696958;83;21199;-48
2021/09/21 08:08:56;;;;;;;2.40;1.37;;;;;;;22.71;56.05;101345.27;1702313;83;21525;-46
2021/09/21 08:11:22;;;;;;;2.30;1.17;;;;;;;22.71;56.04;101348.04;1700537;83;22147;-49
2021/09/21 08:13:48;;;;;;;3.08;1.20;;;;;;;22.72;56.05;101343.31;1688518;83;20891;-50
2021/09/21 08:16:14;;;;;;;4.00;1.55;;;;;;;22.73;56.07;101345.78;1706756;82;21450;-50
2021/09/21 08:18:41;;;;;;;3.90;1.60;;;;;;;22.74;56.04;101347.39;1715018;82;21077;-56
2021/09/21 08:21:07;;;;;;;2.08;1.20;;;;;;;22.74;56.04;101345.22;1681561;84;21082;-50
2021/09/21 08:23:33;;;;;;;2.92;1.25;;;;;;;22.74;56.00;101344.63;1703793;82;21156;-46
2021/09/21 08:25:59;;;;;;;3.30;1.77;;;;;;;22.76;56.02;101347.09;1753550;80;21010;-48
2021/09/21 08:28:25;;;;;;;3.47;1.40;;;;;;;22.76;55.99;101354.84;1739891;80;21493;-46
2021/09/21 08:30:52;;;;;;;3.37;1.50;;;;;;;22.78;55.98;101357.88;1762158;80;21934;-48
2021/09/21 08:33:18;;;;;;;2.25;1.20;;;;;;;22.79;55.96;101345.65;1749367;80;21003;-46
2021/09/21 08:35:44;;;;;;;2.62;1.52;;;;;;;22.79;55.93;101347.03;1761992;80;22550;-49
2021/09/21 08:38:10;;;;;;;2.75;1.45;;;;;;;22.80;55.90;101348.65;1710842;82;20910;-49
2021/09/21 08:40:37;;;;;;;2.83;1.57;;;;;;;22.80;55.89;101348.08;1711934;82;21013;-49
2021/09/21 08:43:03;;;;;;;4.35;1.57;;;;;;;22.81;55.84;101341.41;1710040;82;21860;-50
2021/09/21 08:45:29;;;;;;;2.42;1.30;;;;;;;22.81;55.84;101347.52;1765729;80;21080;-46
2021/09/21 08:47:55;;;;;;;2.92;1.47;;;;;;;22.83;55.81;101345.26;1747927;80;20959;-50
2021/09/21 08:50:22;;;;;;;4.35;1.60;;;;;;;22.82;55.76;101341.66;1763937;80;21063;-49
2021/09/21 08:52:48;;;;;;;2.98;1.42;;;;;;;22.83;55.76;101339.70;1761527;80;21461;-48
2021/09/21 08:55:14;;;;;;;2.72;1.20;;;;;;;22.83;55.74;101341.89;1753139;80;21071;-47
2021/09/21 08:57:40;;;;;;;2.80;1.30;;;;;;;22.83;55.72;101334.16;1763520;80;21477;-47
2021/09/21 09:00:13;;;;;;;1.90;1.20;;;;;;;22.85;55.68;101330.48;1742846;80;22171;-49
2021/09/21 09:02:39;;;;;;;3.10;1.30;;;;;;;22.85;55.65;101334.64;1736277;80;21540;-48
2021/09/21 09:05:07;;;;;;;2.33;1.40;;;;;;;22.86;55.65;101339.06;1750973;80;20931;-47
2021/09/21 09:07:54;;;;;;;2.72;1.35;;;;;;;22.86;55.60;101339.88;1741097;81;21050;-49
2021/09/21 09:10:22;;;;;;;3.65;1.50;;;;;;;22.86;55.59;101344.61;1728537;80;20997;-50
2021/09/21 09:12:48;;;;;;;4.45;1.20;;;;;;;22.86;55.57;101354.32;1749276;80;21833;-49
2021/09/21 09:15:19;;;;;;;2.08;1.15;;;;;;;22.88;55.52;101347.86;1746254;80;20961;-48
2021/09/21 09:18:05;;;;;;;2.37;1.30;;;;;;;22.88;55.51;101356.19;1724305;81;21540;-48
2021/09/21 09:20:38;;;;;;;2.50;1.25;;;;;;;22.88;55.48;101354.80;1741331;80;21042;-49
2021/09/21 09:23:07;;;;;;;2.12;1.22;;;;;;;22.89;55.45;101348.12;1737367;81;21097;-49
2021/09/21 09:25:45;;;;;;;1.90;1.12;;;;;;;22.88;55.41;101357.01;1754527;80;21506;-51
2021/09/21 09:28:16;;;;;;;2.12;1.10;;;;;;;22.89;55.40;101363.38;1738667;81;21078;-49
2021/09/21 09:30:42;;;;;;;1.80;1.20;;;;;;;22.90;55.39;101366.41;1736432;80;21060;-48
2021/09/21 09:33:08;;;;;;;1.67;1.25;;;;;;;22.89;55.35;101365.59;1741996;80;21446;-51
2021/09/21 09:35:39;;;;;;;2.02;1.10;;;;;;;22.90;55.34;101363.64;1738891;80;21026;-49
2021/09/21 09:38:08;;;;;;;1.98;1.10;;;;;;;22.90;55.33;101365.02;1750367;80;23267;-49
2021/09/21 09:40:45;;;;;;;1.67;1.12;;;;;;;22.91;55.30;101370.83;1754225;80;21055;-51
2021/09/21 09:43:18;;;;;;;2.45;1.30;;;;;;;22.91;55.27;101374.99;1743143;80;21069;-49
2021/09/21 09:45:46;;;;;;;2.85;1.20;;;;;;;22.94;55.25;101384.88;1752612;81;21047;-47
2021/09/21 09:48:17;;;;;;;2.75;1.32;;;;;;;22.94;55.23;101379.89;1740977;81;21092;-48
2021/09/21 09:50:44;;;;;;;8.45;5.72;;;;;;;22.95;55.19;101374.04;1752620;81;21825;-50
2021/09/21 09:53:17;;;;;;;343.05;238.43;;;;;;;22.97;55.15;101373.13;1745276;80;21064;-47
2021/09/21 09:55:46;;;;;;;207.25;136.85;;;;;;;22.94;54.68;101369.62;1749785;80;21120;-67
2021/09/21 09:58:13;;;;;;;147.00;100.10;;;;;;;22.80;53.84;101369.45;1747448;80;21142;-48
2021/09/21 10:00:39;;;;;;;51.70;36.70;;;;;;;22.57;53.09;101363.94;1750980;80;21078;-59
2021/09/21 10:03:06;;;;;;;27.60;20.82;;;;;;;22.38;52.44;101364.70;1709335;82;21220;-46
2021/09/21 10:05:35;;;;;;;14.70;10.78;;;;;;;22.21;52.03;101365.97;1712040;82;21065;-48
2021/09/21 10:08:01;;;;;;;25.40;19.20;;;;;;;22.07;51.58;101377.67;1684115;83;20970;-56
2021/09/21 10:10:28;;;;;;;420.20;278.80;;;;;;;21.91;51.25;101374.98;1719259;82;20884;-56
2021/09/21 10:12:57;;;;;;;217.65;131.63;;;;;;;21.81;50.93;101378.83;1725349;81;21049;-47
2021/09/21 10:15:25;;;;;;;44.15;28.98;;;;;;;21.73;50.58;101380.92;1753676;80;21122;-47
2021/09/21 10:17:54;;;;;;;19.92;12.25;;;;;;;21.64;50.25;101382.81;1747299;80;21043;-52
2021/09/21 10:20:22;;;;;;;12.95;8.60;;;;;;;21.49;49.97;101383.95;1755413;80;21023;-49
2021/09/21 10:22:53;;;;;;;6.72;4.75;;;;;;;21.41;49.83;101384.68;1706354;82;21030;-50
2021/09/21 10:25:30;;;;;;;4.85;3.17;;;;;;;21.31;49.53;101381.55;1759563;80;21531;-49
2021/09/21 10:27:57;;;;;;;6.75;4.20;;;;;;;21.21;49.27;101369.89;1712721;81;21120;-47
2021/09/21 10:30:26;;;;;;;6.10;4.12;;;;;;;21.10;49.13;101367.02;1708645;82;21046;-50
2021/09/21 10:32:52;;;;;;;7.67;4.87;;;;;;;21.02;49.03;101360.83;1756551;80;21491;-46
2021/09/21 10:35:21;;;;;;;9.00;4.53;;;;;;;20.98;49.05;101362.83;1756768;80;21121;-48
2021/09/21 10:38:02;;;;;;;9.28;4.60;;;;;;;20.96;48.94;101356.77;1752061;80;21013;-50
2021/09/21 10:40:44;;;;;;;226.25;165.52;;;;;;;20.94;48.83;101356.27;1768063;80;23230;-50
2021/09/21 10:43:27;;;;;;;445.85;307.62;;;;;;;20.95;48.77;101344.09;1745825;80;20973;-47
2021/09/21 10:46:10;;;;;;;291.77;194.02;;;;;;;21.01;48.71;101343.41;1708213;83;21015;-60
2021/09/21 10:48:39;;;;;;;72.67;50.10;;;;;;;21.07;48.65;101342.75;1707299;82;21480;-59
2021/09/21 10:51:07;;;;;;;65.67;46.58;;;;;;;21.12;48.55;101341.27;1712315;82;21033;-49
2021/09/21 10:53:33;;;;;;;28.77;20.60;;;;;;;21.19;48.50;101344.45;1710454;82;21145;-45
2021/09/21 10:56:05;;;;;;;20.25;10.68;;;;;;;21.24;48.33;101336.88;1708543;82;20993;-49
2021/09/21 10:58:31;;;;;;;10.78;6.00;;;;;;;21.24;48.24;101335.50;1757664;80;20982;-48
2021/09/21 11:00:58;;;;;;;602.88;423.85;;;;;;;21.25;48.10;101332.99;1752496;80;21054;-45
2021/09/21 11:03:25;;;;;;;603.02;439.23;;;;;;;21.26;48.05;101340.73;1749312;80;21051;-46
2021/09/21 11:05:57;;;;;;;285.85;173.85;;;;;;;21.25;47.95;101332.99;1711966;82;21732;-47
2021/09/21 11:08:29;;;;;;;86.35;53.40;;;;;;;21.26;47.80;101327.69;1700045;82;37401;-47
2021/09/21 11:11:00;;;;;;;24.72;16.95;;;;;;;21.24;47.54;101329.14;1692486;83;21074;-60
2021/09/21 11:13:36;;;;;;;17.60;10.30;;;;;;;21.18;47.30;101328.98;1698482;82;21512;-56
2021/09/21 11:16:07;;;;;;;35.25;22.58;;;;;;;21.10;47.22;101321.37;1703264;83;20933;-56
2021/09/21 11:18:34;;;;;;;44.70;28.77;;;;;;;21.13;47.34;101323.58;1693101;83;21034;-56
2021/09/21 11:21:06;;;;;;;44.93;27.70;;;;;;;21.22;47.54;101323.08;1673701;83;21076;-56
2021/09/21 11:23:36;;;;;;;44.25;27.45;;;;;;;21.32;47.77;101324.26;1691191;83;21528;-56
2021/09/21 11:26:07;;;;;;;45.80;27.95;;;;;;;21.41;47.92;101325.17;1747863;80;21009;-57
2021/09/21 11:28:37;;;;;;;38.45;25.85;;;;;;;21.50;48.10;101321.10;1743730;80;21073;-56
2021/09/21 11:31:03;;;;;;;39.85;26.15;;;;;;;21.58;48.23;101327.28;1744828;80;21293;-56